Time;durP1;ratioP1;P1;durP2;ratioP2;P2;SDS_P1;SDS_P2;PMS_P1;PMS_P2;Temp;Humidity;BMP_temperature;BMP_pressure;BME280_temperature;BME280_humidity;BME280_pressure;Samples;Min_cycle;Max_cycle;Signal;HPM_P1;HPM_P2
2022/12/12 00:00:11;;;;;;;;;;;;;;;1.44;58.84;97955.63;4515924;31;34122;-86
2022/12/12 00:02:38;;;;;;;;;;;;;;;0.89;60.80;97950.53;4499530;31;34178;-86
2022/12/12 00:05:06;;;;;;;;;;;;;;;1.60;59.08;97948.41;4501281;31;34205;-86
2022/12/12 00:07:34;;;;;;;;;;;;;;;1.66;58.51;97957.09;4511326;31;35078;-84
2022/12/12 00:10:01;;;;;;;;;;;;;;;2.07;57.37;97959.91;4507754;31;34487;-85
2022/12/12 00:12:29;;;;;;;;;;;;;;;1.66;58.07;97966.44;4515409;31;34450;-86
2022/12/12 00:14:56;;;;;;;;;;;;;;;1.82;57.84;97963.53;4515605;31;33037;-84
2022/12/12 00:17:23;;;;;;;;;;;;;;;2.37;56.07;97959.84;4512220;31;34186;-83
2022/12/12 00:19:50;;;;;;;;;;;;;;;1.93;56.73;97974.91;4499843;31;34006;-82
2022/12/12 00:22:18;;;;;;;;;;;;;;;1.61;57.91;97962.91;4505495;31;34072;-85
2022/12/12 00:24:45;;;;;;;;;;;;;;;2.10;56.14;97969.38;4511284;31;32757;-85
2022/12/12 00:27:22;;;;;;;;;;;;;;;2.02;56.56;97969.16;4507207;31;34941;-85
2022/12/12 00:29:53;;;;;;;;;;;;;;;1.64;57.03;97973.22;4514489;31;34270;-87
2022/12/12 00:32:20;;;;;;;;;;;;;;;1.36;58.00;97976.63;4499709;31;34234;-88
2022/12/12 00:34:48;;;;;;;;;;;;;;;2.29;56.81;97981.81;4498028;31;33087;-87
2022/12/12 00:37:15;;;;;;;;;;;;;;;2.27;55.57;97982.59;4505834;31;33983;-86
2022/12/12 00:39:42;;;;;;;;;;;;;;;2.55;55.47;97994.41;4511926;31;33756;-87
2022/12/12 00:42:10;;;;;;;;;;;;;;;0.88;58.84;97989.66;4512586;31;34800;-83
2022/12/12 00:44:37;;;;;;;;;;;;;;;2.27;56.17;97988.56;4511910;31;33959;-87
2022/12/12 00:47:04;;;;;;;;;;;;;;;2.51;55.34;97990.91;4513891;31;34188;-88
2022/12/12 00:49:31;;;;;;;;;;;;;;;2.56;55.06;97996.16;4514738;31;34006;-87
2022/12/12 00:51:59;;;;;;;;;;;;;;;3.51;52.40;97977.88;4514182;31;33964;-85
2022/12/12 00:54:26;;;;;;;;;;;;;;;3.24;53.10;97976.44;4515147;31;33845;-87
2022/12/12 00:56:53;;;;;;;;;;;;;;;2.92;54.03;97971.47;4515625;31;33633;-83
2022/12/12 00:59:20;;;;;;;;;;;;;;;2.74;53.22;97972.72;4508355;31;34872;-85
2022/12/12 01:01:48;;;;;;;;;;;;;;;2.21;55.37;97972.22;4499475;31;33378;-86
2022/12/12 01:04:15;;;;;;;;;;;;;;;2.70;54.31;97974.34;4499998;31;33570;-88
2022/12/12 01:06:42;;;;;;;;;;;;;;;2.95;53.73;97973.19;4515557;31;34048;-86
2022/12/12 01:09:09;;;;;;;;;;;;;;;3.03;53.29;97979.41;4515173;31;34141;-84
2022/12/12 01:11:38;;;;;;;;;;;;;;;3.06;53.12;97971.75;4506237;31;34126;-86
2022/12/12 01:14:06;;;;;;;;;;;;;;;3.13;52.84;97968.50;4499316;31;34377;-85
2022/12/12 01:16:33;;;;;;;;;;;;;;;2.38;54.41;97978.63;4499405;31;33652;-88
2022/12/12 01:19:03;;;;;;;;;;;;;;;1.79;56.27;97983.88;4506156;31;35180;-87
2022/12/12 01:21:30;;;;;;;;;;;;;;;2.57;54.75;97978.25;4500486;31;34225;-87
2022/12/12 01:23:57;;;;;;;;;;;;;;;2.56;54.97;97980.78;4513614;31;33587;-87
2022/12/12 01:26:25;;;;;;;;;;;;;;;2.94;53.88;97989.41;4499835;31;33672;-88
2022/12/12 01:28:52;;;;;;;;;;;;;;;2.67;54.89;97975.13;4510624;31;34420;-88
2022/12/12 01:31:20;;;;;;;;;;;;;;;1.59;56.38;97977.31;4512039;31;34784;-89
2022/12/12 01:33:48;;;;;;;;;;;;;;;1.74;56.48;97987.97;4500013;31;33561;-87
2022/12/12 01:36:17;;;;;;;;;;;;;;;1.91;56.43;97973.97;4504856;31;34818;-87
2022/12/12 01:38:45;;;;;;;;;;;;;;;1.59;57.16;97970.53;4491431;31;34281;-88
2022/12/12 01:41:12;;;;;;;;;;;;;;;2.14;56.24;97959.25;4507311;31;34187;-87
2022/12/12 01:43:40;;;;;;;;;;;;;;;1.58;57.40;97956.00;4505418;31;33535;-87
2022/12/12 01:46:26;;;;;;;;;;;;;;;2.29;55.14;97966.47;4509159;31;34317;-83
2022/12/12 01:48:55;;;;;;;;;;;;;;;2.24;55.38;97962.09;4498747;31;35375;-85
2022/12/12 01:51:23;;;;;;;;;;;;;;;1.15;58.34;97966.66;4498669;31;34907;-84
2022/12/12 01:53:51;;;;;;;;;;;;;;;2.04;56.00;97959.84;4500078;31;34052;-88
2022/12/12 01:56:18;;;;;;;;;;;;;;;1.31;57.53;97956.09;4504547;31;33808;-86
2022/12/12 01:58:46;;;;;;;;;;;;;;;1.49;57.00;97952.34;4504402;31;35226;-87
2022/12/12 02:01:14;;;;;;;;;;;;;;;0.60;59.47;97947.94;4492083;31;34527;-88
2022/12/12 02:03:41;;;;;;;;;;;;;;;1.01;58.77;97955.16;4515723;31;33691;-87
2022/12/12 02:06:09;;;;;;;;;;;;;;;0.94;58.94;97947.31;4507101;31;34959;-85
2022/12/12 02:08:37;;;;;;;;;;;;;;;0.42;60.57;97950.78;4486373;31;33802;-87
2022/12/12 02:11:04;;;;;;;;;;;;;;;-0.03;61.81;97950.09;4487594;31;33921;-86
2022/12/12 02:13:32;;;;;;;;;;;;;;;0.59;59.92;97968.28;4507367;31;33609;-87
2022/12/12 02:16:18;;;;;;;;;;;;;;;1.01;58.77;97957.72;4486247;31;34198;-87
2022/12/12 02:18:54;;;;;;;;;;;;;;;1.61;57.40;97966.31;4505827;31;34414;-86
2022/12/12 02:21:24;;;;;;;;;;;;;;;1.71;56.12;97970.03;4478350;31;34131;-85
2022/12/12 02:24:01;;;;;;;;;;;;;;;1.19;57.04;97963.38;4486373;31;33378;-86
2022/12/12 02:26:47;;;;;;;;;;;;;;;0.45;59.69;97973.78;4500506;31;34043;-84
2022/12/12 02:29:34;;;;;;;;;;;;;;;1.37;57.87;97966.50;4513248;31;34386;-87
2022/12/12 02:32:21;;;;;;;;;;;;;;;1.61;56.31;97958.66;4504564;31;35012;-87
2022/12/12 02:34:50;;;;;;;;;;;;;;;1.68;56.35;97964.81;4482402;31;33164;-86
2022/12/12 02:37:23;;;;;;;;;;;;;;;1.84;55.01;97961.00;4487039;31;34717;-85
2022/12/12 02:39:57;;;;;;;;;;;;;;;1.18;56.44;97961.66;4475928;31;34061;-82
2022/12/12 02:42:28;;;;;;;;;;;;;;;1.07;57.31;97965.56;4493339;31;34536;-87
2022/12/12 02:44:58;;;;;;;;;;;;;;;1.33;56.39;97962.12;4485870;31;34412;-88
2022/12/12 02:47:27;;;;;;;;;;;;;;;0.81;57.59;97965.63;4487072;31;34254;-87
2022/12/12 02:49:59;;;;;;;;;;;;;;;0.49;58.70;97956.91;4500322;31;32968;-85
2022/12/12 02:52:27;;;;;;;;;;;;;;;0.01;59.12;97969.75;4487514;31;33483;-88
2022/12/12 02:54:54;;;;;;;;;;;;;;;0.56;57.80;97961.41;4501305;31;34324;-83
2022/12/12 02:57:23;;;;;;;;;;;;;;;0.88;56.53;97947.12;4498762;31;33998;-86
2022/12/12 02:59:53;;;;;;;;;;;;;;;0.77;55.99;97955.28;4516300;31;34438;-85
2022/12/12 03:08:33;;;;;;;;;;;;;;;0.89;56.01;97953.09;4448933;32;34913;-87
2022/12/12 03:11:08;;;;;;;;;;;;;;;0.33;56.65;97965.75;4499739;31;35176;-87
2022/12/12 03:13:45;;;;;;;;;;;;;;;1.08;54.08;97967.28;4499524;31;34291;-83
2022/12/12 03:16:25;;;;;;;;;;;;;;;0.95;54.76;97969.47;4507432;31;33883;-86
2022/12/12 03:18:52;;;;;;;;;;;;;;;0.27;55.91;97983.41;4515636;31;34216;-87
2022/12/12 03:21:20;;;;;;;;;;;;;;;0.29;56.86;97989.41;4516193;31;35448;-87
2022/12/12 03:23:48;;;;;;;;;;;;;;;0.48;55.38;97996.00;4512704;31;35098;-83
2022/12/12 03:26:17;;;;;;;;;;;;;;;0.45;55.47;97996.75;4488238;31;33566;-88
2022/12/12 03:28:46;;;;;;;;;;;;;;;1.34;53.67;97989.37;4500321;31;33956;-88
2022/12/12 03:31:14;;;;;;;;;;;;;;;1.36;53.30;98000.47;4503759;31;33939;-87
2022/12/12 03:33:46;;;;;;;;;;;;;;;1.13;53.50;98007.44;4507813;31;33854;-84
2022/12/12 03:36:24;;;;;;;;;;;;;;;1.53;52.88;98005.25;4486183;31;34256;-83
2022/12/12 03:38:59;;;;;;;;;;;;;;;0.98;53.61;98017.16;4487000;31;35009;-87
2022/12/12 03:41:30;;;;;;;;;;;;;;;2.40;50.30;98013.66;4500829;31;34313;-88
2022/12/12 03:44:02;;;;;;;;;;;;;;;1.19;52.94;98025.50;4487974;31;34223;-88
2022/12/12 03:46:31;;;;;;;;;;;;;;;1.59;51.89;98036.06;4488209;31;32592;-87
2022/12/12 03:49:28;;;;;;;;;;;;;;;2.06;51.11;98034.03;4498957;31;34260;-87
2022/12/12 03:52:14;;;;;;;;;;;;;;;2.76;49.45;98042.69;4481326;31;34398;-88
2022/12/12 03:55:01;;;;;;;;;;;;;;;2.19;50.41;98042.06;4503164;31;34333;-86
2022/12/12 03:57:33;;;;;;;;;;;;;;;1.80;51.00;98046.91;4513530;31;33401;-86
2022/12/12 04:00:02;;;;;;;;;;;;;;;2.18;51.26;98048.00;4495509;31;34189;-88
2022/12/12 04:02:40;;;;;;;;;;;;;;;1.97;50.92;98054.19;4500546;31;34297;-88
2022/12/12 04:05:07;;;;;;;;;;;;;;;2.39;49.21;98055.41;4495574;31;33660;-87
2022/12/12 04:07:39;;;;;;;;;;;;;;;2.86;49.33;98060.88;4515549;31;33217;-86
2022/12/12 04:13:02;;;;;;;;;;;;;;;3.13;48.40;98067.53;4494684;31;34307;-87
2022/12/12 04:15:39;;;;;;;;;;;;;;;3.38;47.03;98066.44;4499804;31;33841;-85
2022/12/12 04:18:12;;;;;;;;;;;;;;;3.62;46.69;98060.97;4498544;31;34290;-85
2022/12/12 04:23:54;;;;;;;;;;;;;;;3.18;47.11;98086.41;4457811;32;35271;-85
2022/12/12 04:29:33;;;;;;;;;;;;;;;2.19;49.55;98093.19;4467494;31;33020;-87
2022/12/12 04:32:20;;;;;;;;;;;;;;;3.56;46.45;98096.72;4485401;31;33811;-86
2022/12/12 04:35:09;;;;;;;;;;;;;;;2.08;49.49;98093.72;4485372;31;35256;-85
2022/12/12 04:37:37;;;;;;;;;;;;;;;1.94;49.09;98091.66;4498836;31;34587;-87
2022/12/12 04:40:05;;;;;;;;;;;;;;;2.19;48.37;98093.19;4514807;31;34336;-89
2022/12/12 04:42:33;;;;;;;;;;;;;;;2.42;47.24;98101.53;4500613;31;34071;-86
2022/12/12 04:45:05;;;;;;;;;;;;;;;3.12;44.90;98099.94;4501092;31;34393;-82
2022/12/12 04:47:32;;;;;;;;;;;;;;;3.00;45.42;98106.47;4494263;31;34229;-87
2022/12/12 04:50:00;;;;;;;;;;;;;;;2.14;45.83;98106.69;4501607;31;34255;-87
2022/12/12 04:52:27;;;;;;;;;;;;;;;2.30;45.67;98111.41;4499780;31;35021;-86
2022/12/12 04:54:57;;;;;;;;;;;;;;;2.32;46.16;98109.78;4492430;31;36987;-87
2022/12/12 04:57:26;;;;;;;;;;;;;;;1.99;46.51;98121.59;4509028;31;33695;-87
2022/12/12 04:59:53;;;;;;;;;;;;;;;2.38;46.38;98124.41;4486848;31;32867;-88
2022/12/12 05:02:27;;;;;;;;;;;;;;;3.44;44.30;98114.38;4510510;31;34465;-86
2022/12/12 05:04:58;;;;;;;;;;;;;;;3.95;42.43;98111.28;4497404;31;34376;-83
2022/12/12 05:07:42;;;;;;;;;;;;;;;3.70;42.77;98115.84;4505740;31;34867;-87
2022/12/12 05:10:13;;;;;;;;;;;;;;;3.14;43.89;98116.25;4490683;31;33388;-85
2022/12/12 05:12:42;;;;;;;;;;;;;;;3.45;43.74;98114.44;4484941;31;35021;-83
2022/12/12 05:15:09;;;;;;;;;;;;;;;2.74;45.38;98119.44;4499695;31;34252;-87
2022/12/12 05:17:47;;;;;;;;;;;;;;;2.18;46.85;98116.19;4504962;31;33757;-87
2022/12/12 05:20:14;;;;;;;;;;;;;;;2.96;45.52;98120.03;4500614;31;34136;-87
2022/12/12 05:22:41;;;;;;;;;;;;;;;3.08;45.45;98118.63;4510430;31;34264;-85
2022/12/12 05:25:09;;;;;;;;;;;;;;;2.54;46.54;98120.59;4502666;31;34404;-87
2022/12/12 05:27:37;;;;;;;;;;;;;;;4.07;43.69;98114.97;4497170;31;34321;-87
2022/12/12 05:30:04;;;;;;;;;;;;;;;3.71;44.52;98121.84;4499592;31;33533;-85
2022/12/12 05:32:31;;;;;;;;;;;;;;;3.97;43.41;98118.16;4515159;31;34905;-88
2022/12/12 05:34:59;;;;;;;;;;;;;;;4.05;43.34;98121.78;4514738;31;34549;-85
2022/12/12 05:37:26;;;;;;;;;;;;;;;3.22;44.36;98124.13;4504666;31;35297;-87
2022/12/12 05:39:53;;;;;;;;;;;;;;;1.56;48.66;98130.50;4485765;31;34039;-88
2022/12/12 05:42:21;;;;;;;;;;;;;;;2.97;45.03;98129.44;4499051;31;35154;-86
2022/12/12 05:44:48;;;;;;;;;;;;;;;2.51;46.20;98144.41;4498845;31;34399;-85
2022/12/12 05:47:15;;;;;;;;;;;;;;;1.39;48.72;98138.47;4503420;31;35017;-84
2022/12/12 05:49:42;;;;;;;;;;;;;;;2.43;46.25;98141.63;4510334;31;33568;-84
2022/12/12 05:52:10;;;;;;;;;;;;;;;3.07;44.94;98133.94;4501564;31;34433;-88
2022/12/12 05:54:39;;;;;;;;;;;;;;;2.21;46.56;98135.88;4510160;31;34159;-87
2022/12/12 05:57:06;;;;;;;;;;;;;;;2.34;45.98;98141.34;4505641;31;33172;-86
2022/12/12 05:59:33;;;;;;;;;;;;;;;1.87;46.85;98138.28;4514456;31;33295;-88
2022/12/12 06:02:01;;;;;;;;;;;;;;;1.68;47.46;98151.31;4510329;31;34847;-89
2022/12/12 06:04:29;;;;;;;;;;;;;;;1.71;47.90;98156.53;4483473;31;33720;-86
2022/12/12 06:06:57;;;;;;;;;;;;;;;1.66;47.15;98151.25;4498165;31;34193;-89
2022/12/12 06:09:24;;;;;;;;;;;;;;;1.82;47.53;98152.62;4498718;31;33389;-86
2022/12/12 06:11:52;;;;;;;;;;;;;;;2.97;44.36;98143.09;4499208;31;34756;-85
2022/12/12 06:14:19;;;;;;;;;;;;;;;1.70;46.98;98157.31;4497012;31;34475;-86
2022/12/12 06:16:48;;;;;;;;;;;;;;;1.90;46.73;98150.31;4514420;31;34529;-89
2022/12/12 06:19:16;;;;;;;;;;;;;;;2.63;44.95;98149.00;4507175;31;34439;-88
2022/12/12 06:21:44;;;;;;;;;;;;;;;3.53;42.81;98153.03;4503942;31;35089;-87
2022/12/12 06:24:11;;;;;;;;;;;;;;;3.73;42.54;98153.50;4505640;31;35086;-87
2022/12/12 06:26:38;;;;;;;;;;;;;;;4.13;41.37;98166.41;4514380;31;35182;-84
2022/12/12 06:29:06;;;;;;;;;;;;;;;3.94;41.72;98168.50;4511163;31;34297;-85
2022/12/12 06:31:33;;;;;;;;;;;;;;;4.60;40.59;98166.53;4498271;31;34975;-86
2022/12/12 06:34:03;;;;;;;;;;;;;;;4.43;40.67;98167.00;4507873;31;34505;-87
2022/12/12 06:36:30;;;;;;;;;;;;;;;3.79;42.30;98190.41;4506047;31;33590;-88
2022/12/12 06:38:58;;;;;;;;;;;;;;;4.12;41.86;98174.06;4484912;31;34043;-89
2022/12/12 06:41:26;;;;;;;;;;;;;;;5.04;40.40;98183.66;4514455;31;33614;-88
2022/12/12 06:43:54;;;;;;;;;;;;;;;5.05;40.94;98182.81;4515666;31;34180;-87
2022/12/12 06:46:22;;;;;;;;;;;;;;;5.06;40.28;98187.09;4513479;31;34184;-83
2022/12/12 06:48:50;;;;;;;;;;;;;;;3.96;42.71;98187.37;4501464;31;32983;-85
2022/12/12 06:51:19;;;;;;;;;;;;;;;3.99;42.58;98184.88;4486189;31;34258;-86
2022/12/12 06:53:46;;;;;;;;;;;;;;;3.99;42.46;98187.44;4500587;31;34387;-87
2022/12/12 06:56:15;;;;;;;;;;;;;;;4.62;40.98;98190.56;4486244;31;33833;-86
2022/12/12 06:58:42;;;;;;;;;;;;;;;4.25;41.97;98191.47;4486054;31;32600;-86
2022/12/12 07:01:10;;;;;;;;;;;;;;;3.91;43.02;98192.41;4514739;31;33836;-87
2022/12/12 07:03:37;;;;;;;;;;;;;;;4.41;42.38;98195.22;4501651;31;34416;-86
2022/12/12 07:06:05;;;;;;;;;;;;;;;2.90;45.82;98202.63;4504148;31;34561;-87
2022/12/12 07:08:32;;;;;;;;;;;;;;;2.61;46.56;98205.25;4500551;31;33554;-83
2022/12/12 07:11:03;;;;;;;;;;;;;;;3.43;45.15;98205.75;4500266;31;33922;-86
2022/12/12 07:13:30;;;;;;;;;;;;;;;3.11;45.43;98208.34;4500476;31;35341;-86
2022/12/12 07:15:59;;;;;;;;;;;;;;;3.12;45.98;98210.06;4500413;31;35020;-87
2022/12/12 07:18:26;;;;;;;;;;;;;;;2.62;46.50;98206.12;4499981;31;33059;-82
2022/12/12 07:20:54;;;;;;;;;;;;;;;3.81;44.48;98214.38;4486089;31;35125;-86
2022/12/12 07:23:21;;;;;;;;;;;;;;;3.66;44.29;98214.00;4500430;31;35124;-87
2022/12/12 07:25:48;;;;;;;;;;;;;;;3.24;45.68;98222.34;4500290;31;34695;-86
2022/12/12 07:28:16;;;;;;;;;;;;;;;3.67;44.19;98218.28;4500306;31;33849;-87
2022/12/12 07:30:45;;;;;;;;;;;;;;;2.62;46.81;98226.59;4500098;31;34301;-87
2022/12/12 07:33:15;;;;;;;;;;;;;;;2.91;46.69;98228.25;4498297;31;34302;-87
2022/12/12 07:35:42;;;;;;;;;;;;;;;3.43;45.46;98221.12;4502118;31;34217;-86
2022/12/12 07:38:10;;;;;;;;;;;;;;;3.39;44.33;98234.69;4516100;31;33363;-86
2022/12/12 07:40:37;;;;;;;;;;;;;;;3.46;44.99;98240.84;4501322;31;33962;-85
2022/12/12 07:43:04;;;;;;;;;;;;;;;2.35;46.88;98237.75;4516027;31;34194;-87
2022/12/12 07:45:31;;;;;;;;;;;;;;;2.48;47.28;98238.13;4516064;31;34269;-87
2022/12/12 07:47:59;;;;;;;;;;;;;;;3.50;44.78;98240.09;4515667;31;33344;-86
2022/12/12 07:50:26;;;;;;;;;;;;;;;3.42;45.12;98233.06;4503037;31;34429;-84
2022/12/12 07:52:53;;;;;;;;;;;;;;;2.80;46.01;98232.22;4515648;31;32830;-87
2022/12/12 07:55:20;;;;;;;;;;;;;;;4.18;43.53;98235.75;4515747;31;33888;-86
2022/12/12 07:57:48;;;;;;;;;;;;;;;3.70;44.28;98235.44;4514766;31;33001;-82
2022/12/12 08:00:16;;;;;;;;;;;;;;;3.08;45.58;98246.66;4510408;31;34736;-87
2022/12/12 08:02:43;;;;;;;;;;;;;;;2.86;46.62;98254.56;4512753;31;34225;-86
2022/12/12 08:05:11;;;;;;;;;;;;;;;3.27;45.87;98260.84;4500029;31;35022;-86
2022/12/12 08:07:38;;;;;;;;;;;;;;;2.73;46.67;98260.16;4499891;31;34229;-86
2022/12/12 08:10:06;;;;;;;;;;;;;;;3.58;45.00;98256.53;4499588;31;34256;-83
2022/12/12 08:12:33;;;;;;;;;;;;;;;2.90;45.87;98262.38;4499853;31;34114;-86
2022/12/12 08:15:00;;;;;;;;;;;;;;;3.15;45.83;98252.84;4510230;31;33905;-86
2022/12/12 08:17:29;;;;;;;;;;;;;;;2.00;47.30;98261.34;4515431;31;33591;-85
2022/12/12 08:19:56;;;;;;;;;;;;;;;2.22;48.54;98268.00;4515749;31;34108;-85
2022/12/12 08:22:23;;;;;;;;;;;;;;;3.53;45.43;98263.22;4515745;31;35317;-87
2022/12/12 08:24:51;;;;;;;;;;;;;;;2.90;46.23;98264.06;4515764;31;33871;-86
2022/12/12 08:27:18;;;;;;;;;;;;;;;1.27;50.40;98281.06;4510365;31;33444;-85
2022/12/12 08:29:45;;;;;;;;;;;;;;;2.23;48.00;98274.84;4501396;31;34990;-86
2022/12/12 08:32:13;;;;;;;;;;;;;;;0.93;51.25;98287.53;4499671;31;34320;-85
2022/12/12 08:34:40;;;;;;;;;;;;;;;1.84;49.36;98278.75;4500058;31;34950;-86
2022/12/12 08:37:07;;;;;;;;;;;;;;;2.63;47.54;98276.94;4503017;31;33505;-84
2022/12/12 08:39:35;;;;;;;;;;;;;;;1.91;48.84;98283.25;4515550;31;34334;-87
2022/12/12 08:42:03;;;;;;;;;;;;;;;1.95;48.63;98292.75;4514546;31;35329;-87
2022/12/12 08:44:30;;;;;;;;;;;;;;;2.11;48.10;98278.75;4485057;31;787765;-87
2022/12/12 08:46:57;;;;;;;;;;;;;;;2.67;47.10;98278.78;4501997;31;33680;-87
2022/12/12 08:49:24;;;;;;;;;;;;;;;2.76;46.73;98279.03;4500824;31;34361;-85
2022/12/12 08:51:52;;;;;;;;;;;;;;;2.52;47.38;98274.06;4500236;31;34328;-89
2022/12/12 08:54:19;;;;;;;;;;;;;;;1.95;49.65;98282.53;4500189;31;34905;-82
2022/12/12 08:56:46;;;;;;;;;;;;;;;2.73;46.54;98278.06;4512243;31;32724;-84
2022/12/12 08:59:14;;;;;;;;;;;;;;;2.03;46.95;98280.22;4515922;31;34456;-85
2022/12/12 09:01:41;;;;;;;;;;;;;;;1.49;48.05;98284.38;4515449;31;34944;-87
2022/12/12 09:04:08;;;;;;;;;;;;;;;1.81;48.78;98278.63;4515208;31;33421;-86
2022/12/12 09:06:36;;;;;;;;;;;;;;;1.80;48.03;98284.56;4515976;31;33001;-86
2022/12/12 09:09:04;;;;;;;;;;;;;;;1.19;48.94;98290.16;4515430;31;33931;-87
2022/12/12 09:11:31;;;;;;;;;;;;;;;2.41;46.98;98281.41;4494554;31;33896;-83
2022/12/12 09:13:58;;;;;;;;;;;;;;;2.04;48.36;98293.84;4499697;31;34344;-85
2022/12/12 09:16:28;;;;;;;;;;;;;;;1.59;48.71;98283.84;4499323;31;33530;-84
2022/12/12 09:18:55;;;;;;;;;;;;;;;1.91;48.81;98280.69;4500530;31;34613;-87
2022/12/12 09:21:23;;;;;;;;;;;;;;;2.86;46.42;98283.59;4485362;31;34381;-87
2022/12/12 09:23:50;;;;;;;;;;;;;;;3.17;45.87;98274.22;4499605;31;33751;-85
2022/12/12 09:26:17;;;;;;;;;;;;;;;2.13;47.92;98277.13;4499600;31;33449;-88
2022/12/12 09:28:44;;;;;;;;;;;;;;;1.39;49.63;98283.19;4499351;31;34081;-83
2022/12/12 09:31:12;;;;;;;;;;;;;;;1.77;49.43;98279.34;4500866;31;35283;-87
2022/12/12 09:33:39;;;;;;;;;;;;;;;2.57;47.12;98275.06;4515293;31;34335;-85
2022/12/12 09:36:06;;;;;;;;;;;;;;;1.54;49.62;98280.28;4501168;31;34373;-82
2022/12/12 09:38:34;;;;;;;;;;;;;;;1.87;48.56;98272.88;4515187;31;34002;-87
2022/12/12 09:41:01;;;;;;;;;;;;;;;1.75;48.72;98291.22;4515319;31;34073;-87
2022/12/12 09:43:30;;;;;;;;;;;;;;;1.93;48.97;98283.28;4515139;31;34025;-86
2022/12/12 09:45:57;;;;;;;;;;;;;;;1.80;49.00;98292.25;4514760;31;34338;-84
2022/12/12 09:48:44;;;;;;;;;;;;;;;1.70;49.67;98277.41;4504074;31;33970;-84
2022/12/12 09:51:11;;;;;;;;;;;;;;;1.62;48.77;98283.97;4484793;31;34171;-86
2022/12/12 09:53:39;;;;;;;;;;;;;;;1.95;49.16;98297.00;4484856;31;34963;-81
2022/12/12 09:56:12;;;;;;;;;;;;;;;1.31;50.26;98284.59;4487199;31;33299;-84
2022/12/12 09:58:48;;;;;;;;;;;;;;;1.52;50.63;98292.16;4498849;31;34137;-84
2022/12/12 10:01:25;;;;;;;;;;;;;;;1.65;51.11;98301.94;4489452;31;34491;-86
2022/12/12 10:03:58;;;;;;;;;;;;;;;2.29;49.64;98298.06;4495666;31;33805;-87
2022/12/12 10:06:26;;;;;;;;;;;;;;;2.61;48.70;98288.81;4502341;31;33347;-85
2022/12/12 10:09:16;;;;;;;;;;;;;;;2.48;49.20;98305.50;4489319;31;34256;-86
2022/12/12 10:11:49;;;;;;;;;;;;;;;2.68;47.40;98288.16;4511160;31;33995;-87
2022/12/12 10:14:18;;;;;;;;;;;;;;;3.19;46.62;98293.06;4504841;31;35110;-87
2022/12/12 10:16:45;;;;;;;;;;;;;;;2.77;47.97;98292.72;4485343;31;33097;-85
2022/12/12 10:19:19;;;;;;;;;;;;;;;3.62;46.62;98289.09;4487084;31;33823;-86
2022/12/12 10:21:47;;;;;;;;;;;;;;;3.24;46.28;98296.63;4502294;31;34508;-86
2022/12/12 10:24:23;;;;;;;;;;;;;;;3.30;46.44;98296.78;4502061;31;34338;-84
2022/12/12 10:26:51;;;;;;;;;;;;;;;2.67;48.06;98301.78;4490653;31;33444;-86
2022/12/12 10:29:19;;;;;;;;;;;;;;;2.79;47.68;98304.72;4516147;31;32698;-87
2022/12/12 10:31:52;;;;;;;;;;;;;;;1.82;49.81;98315.28;4485632;31;35153;-86
2022/12/12 10:34:21;;;;;;;;;;;;;;;3.24;45.81;98304.28;4501543;31;33692;-87
2022/12/12 10:36:51;;;;;;;;;;;;;;;2.46;46.06;98306.25;4514926;31;33693;-83
2022/12/12 10:39:21;;;;;;;;;;;;;;;3.21;44.19;98308.47;4508588;31;34830;-85
2022/12/12 10:41:57;;;;;;;;;;;;;;;2.40;46.19;98314.63;4507586;31;34013;-87
2022/12/12 10:44:39;;;;;;;;;;;;;;;1.89;47.00;98323.19;4513222;31;34132;-87
2022/12/12 10:47:13;;;;;;;;;;;;;;;1.95;45.98;98310.63;4502795;31;33000;-87
2022/12/12 10:49:41;;;;;;;;;;;;;;;2.55;45.68;98329.59;4506697;31;34232;-87
2022/12/12 10:52:16;;;;;;;;;;;;;;;2.87;44.73;98307.50;4498938;31;34382;-86
2022/12/12 10:54:45;;;;;;;;;;;;;;;2.65;45.18;98300.87;4511674;31;34865;-87
2022/12/12 10:57:18;;;;;;;;;;;;;;;3.63;43.73;98301.06;4500948;31;32968;-84
2022/12/12 10:59:48;;;;;;;;;;;;;;;2.21;45.27;98313.19;4510352;31;34047;-86
2022/12/12 11:02:26;;;;;;;;;;;;;;;1.35;47.32;98315.41;4511283;31;34937;-86
2022/12/12 11:05:09;;;;;;;;;;;;;;;1.83;45.09;98312.78;4500582;31;34190;-86
2022/12/12 11:07:38;;;;;;;;;;;;;;;1.36;47.69;98314.56;4512043;31;33394;-87
2022/12/12 11:10:17;;;;;;;;;;;;;;;1.24;47.20;98314.16;4485858;31;34988;-86
2022/12/12 11:12:44;;;;;;;;;;;;;;;1.68;47.72;98323.38;4501732;31;34183;-85
2022/12/12 11:15:13;;;;;;;;;;;;;;;1.42;48.11;98312.25;4505664;31;34926;-82
2022/12/12 11:17:41;;;;;;;;;;;;;;;1.46;48.10;98311.53;4502274;31;33742;-85
2022/12/12 11:20:13;;;;;;;;;;;;;;;2.49;46.83;98317.44;4516154;31;34109;-84
2022/12/12 11:22:40;;;;;;;;;;;;;;;3.05;45.07;98323.41;4515736;31;35171;-87
2022/12/12 11:25:19;;;;;;;;;;;;;;;2.29;46.59;98332.19;4515925;31;34958;-85
2022/12/12 11:27:47;;;;;;;;;;;;;;;2.42;46.73;98329.22;4501313;31;33184;-86
2022/12/12 11:30:27;;;;;;;;;;;;;;;1.86;47.53;98330.78;4513383;31;33836;-87
2022/12/12 11:32:54;;;;;;;;;;;;;;;2.17;47.00;98334.34;4489084;31;33602;-86
2022/12/12 11:35:32;;;;;;;;;;;;;;;2.65;45.99;98318.78;4500294;31;34732;-85
2022/12/12 11:38:01;;;;;;;;;;;;;;;1.80;47.26;98335.69;4506668;31;33667;-84
2022/12/12 11:40:29;;;;;;;;;;;;;;;2.21;48.16;98327.66;4501098;31;34030;-85
2022/12/12 11:43:15;;;;;;;;;;;;;;;2.34;46.61;98330.63;4496567;31;34294;-81
2022/12/12 11:45:43;;;;;;;;;;;;;;;2.22;48.21;98337.91;4514718;31;34168;-83
2022/12/12 11:48:29;;;;;;;;;;;;;;;2.52;48.12;98339.72;4497061;31;33452;-85
2022/12/12 11:50:56;;;;;;;;;;;;;;;2.12;48.71;98341.00;4501599;31;33993;-85
2022/12/12 11:53:24;;;;;;;;;;;;;;;2.45;48.40;98341.22;4500962;31;34273;-83
2022/12/12 11:55:55;;;;;;;;;;;;;;;2.75;47.54;98336.16;4497002;31;32543;-84
2022/12/12 11:58:26;;;;;;;;;;;;;;;3.29;46.46;98330.91;4493125;31;32782;-86
2022/12/12 12:00:53;;;;;;;;;;;;;;;2.75;46.15;98336.16;4492102;31;33827;-85
2022/12/12 12:03:32;;;;;;;;;;;;;;;3.54;46.03;98341.84;4500389;31;34932;-83
2022/12/12 12:06:18;;;;;;;;;;;;;;;4.09;45.11;98340.69;4499403;31;34067;-87
2022/12/12 12:09:04;;;;;;;;;;;;;;;2.71;49.33;98354.81;4499543;31;33590;-84
2022/12/12 12:11:36;;;;;;;;;;;;;;;3.01;49.59;98361.69;4499042;31;33424;-84
2022/12/12 12:14:04;;;;;;;;;;;;;;;3.39;49.47;98355.09;4484831;31;34153;-83
2022/12/12 12:16:31;;;;;;;;;;;;;;;3.02;50.34;98350.59;4511736;31;34807;-86
2022/12/12 12:18:58;;;;;;;;;;;;;;;3.85;48.14;98346.06;4512100;31;33443;-83
2022/12/12 12:21:44;;;;;;;;;;;;;;;3.99;47.54;98336.19;4509361;31;34159;-84
2022/12/12 12:24:17;;;;;;;;;;;;;;;2.52;50.79;98348.25;4512846;31;34828;-83
2022/12/12 12:26:54;;;;;;;;;;;;;;;2.91;50.81;98361.38;4514536;31;34206;-84
2022/12/12 12:29:24;;;;;;;;;;;;;;;3.81;48.07;98350.25;4499171;31;32761;-85
2022/12/12 12:31:55;;;;;;;;;;;;;;;2.76;50.73;98358.38;4515905;31;34160;-85
2022/12/12 12:34:30;;;;;;;;;;;;;;;3.62;48.89;98345.47;4513635;31;34220;-86
2022/12/12 12:37:16;;;;;;;;;;;;;;;3.47;49.46;98345.06;4492909;31;34056;-84
2022/12/12 12:39:51;;;;;;;;;;;;;;;3.01;50.86;98349.75;4514772;31;33498;-83
2022/12/12 12:42:23;;;;;;;;;;;;;;;2.75;51.94;98355.78;4501494;31;33836;-85
2022/12/12 12:44:54;;;;;;;;;;;;;;;3.89;49.21;98361.56;4488140;31;34351;-85
2022/12/12 12:47:27;;;;;;;;;;;;;;;2.54;52.74;98368.75;4501261;31;34068;-83
2022/12/12 12:49:57;;;;;;;;;;;;;;;2.81;52.50;98371.34;4515629;31;32552;-84
2022/12/12 12:52:35;;;;;;;;;;;;;;;3.97;48.98;98368.59;4515473;31;34946;-84
2022/12/12 12:55:02;;;;;;;;;;;;;;;3.30;50.78;98376.22;4501250;31;34177;-84
2022/12/12 12:57:34;;;;;;;;;;;;;;;3.52;50.13;98381.91;4500720;31;35036;-84
2022/12/12 13:00:05;;;;;;;;;;;;;;;2.37;52.33;98379.34;4500610;31;34275;-84
2022/12/12 13:02:33;;;;;;;;;;;;;;;2.54;51.42;98381.56;4513408;31;34764;-84
2022/12/12 13:05:09;;;;;;;;;;;;;;;3.44;49.17;98380.84;4511265;31;34323;-84
2022/12/12 13:07:51;;;;;;;;;;;;;;;2.47;51.67;98395.88;4485242;31;34976;-84
2022/12/12 13:10:19;;;;;;;;;;;;;;;3.28;49.37;98382.97;4484792;31;32529;-82
2022/12/12 13:12:50;;;;;;;;;;;;;;;2.93;48.94;98385.34;4487890;31;34314;-83
2022/12/12 13:15:22;;;;;;;;;;;;;;;2.32;50.63;98387.69;4493149;31;34360;-82
2022/12/12 13:18:00;;;;;;;;;;;;;;;3.46;48.44;98385.19;4504590;31;34241;-82
2022/12/12 13:20:28;;;;;;;;;;;;;;;3.36;48.45;98376.38;4507216;31;33110;-82
2022/12/12 13:23:03;;;;;;;;;;;;;;;3.50;47.93;98383.59;4515135;31;34317;-82
2022/12/12 13:25:46;;;;;;;;;;;;;;;2.78;48.82;98387.44;4497864;31;33898;-81
2022/12/12 13:28:14;;;;;;;;;;;;;;;2.66;49.21;98393.06;4515047;31;34279;-81